Flight Track Log - Related Links

Times and Time Zones

All times are in EDT time to prevent confusion due to time zone crossing. See the N816BG flight status page for this flight to view local times or setup timezone preferences in your user account.


Time Position Orientation Groundspeed Altitude Reporting Facility
EDT Latitude Longitude Course Direction KTS MPH feet Rate Location/Type
Sun 09:44:01 AM 40.9333 -74.0667 270° West 245 282 3,500  Level New York TRACON
Sun 09:45:01 AM 40.9333 -74.1500 270° West 264 304 6,500 2,421 Climbing New York TRACON
Sun 09:45:55 AM 40.9167 -74.2500 258° West 298 343 8,100 1,400 Climbing New York TRACON
Sun 09:47:01 AM 40.9500 -74.3333 298° West 270 311 9,300 1,558 Climbing New York TRACON
Sun 09:47:39 AM 40.9811 -74.3908 306° West 272 313 10,800 3,000 Climbing New York Center
Sun 09:48:39 AM 41.0225 -74.4703 305° West 278 320 14,200 2,600 Climbing New York Center
Sun 09:49:39 AM 41.0656 -74.5550 304° West 278 320 16,000 1,600 Climbing New York Center
Sun 09:50:39 AM 41.1164 -74.6542 304° West 316 364 17,400 1,900 Climbing New York Center
Sun 09:51:39 AM 41.1631 -74.7561 301° West 329 379 19,800 2,300 Climbing New York Center
Sun 09:52:39 AM 41.2056 -74.8525 300° West 318 366 22,000 1,950 Climbing New York Center
Sun 09:53:39 AM 41.2478 -74.9544 299° West 318 366 23,700 1,550 Climbing New York Center
Sun 09:54:39 AM 41.2922 -75.0511 301° West 318 366 25,100 1,300 Climbing New York Center
Sun 09:55:39 AM 41.3364 -75.1561 299° West 318 366 26,300 1,000 Climbing New York Center
Sun 09:56:39 AM 41.3653 -75.2767 288° West 323 372 27,100 550 Climbing New York Center
Sun 09:57:39 AM 41.3936 -75.4003 287° West 344 396 27,400 1,250 Climbing New York Center
Sun 09:58:39 AM 41.4242 -75.5269 288° West 357 411 29,600 1,650 Climbing New York Center
Sun 09:59:39 AM 41.4506 -75.6422 287° West 344 396 30,700 1,200 Climbing New York Center
Sun 10:00:39 AM 41.4769 -75.7606 287° West 344 396 32,000 1,250 Climbing New York Center
Sun 10:01:39 AM 41.5014 -75.8731 286° West 334 384 33,200 1,000 Climbing New York Center
Sun 10:02:39 AM 41.5278 -75.9831 288° West 322 371 34,000 900 Climbing New York Center
Sun 10:03:39 AM 41.5522 -76.0931 287° West 317 365 35,000 850 Climbing New York Center
Sun 10:04:39 AM 41.5783 -76.2061 287° West 317 365 35,700 500 Climbing New York Center
Sun 10:05:39 AM 41.6022 -76.3192 286° West 317 365 36,000 150 Climbing New York Center
Sun 10:06:39 AM 41.6278 -76.4378 286° West 322 371 36,000  Level New York Center
Sun 10:07:39 AM 41.6472 -76.5533 283° West 340 391 36,000  Level New York Center
Sun 10:09:03 AM 41.6817 -76.7478 283° West 359 413 36,000  Level Cleveland Center
Sun 10:10:05 AM 41.7056 -76.8822 283° West 368 423 36,000  Level Cleveland Center
Sun 10:11:07 AM 41.7303 -77.0186 284° West 375 432 36,000  Level Cleveland Center
Sun 10:12:09 AM 41.7533 -77.1547 283° West 375 432 36,000  Level Cleveland Center
Sun 10:13:11 AM 41.7769 -77.2917 283° West 375 432 36,000  Level Cleveland Center
Sun 10:14:13 AM 41.8017 -77.4322 283° West 383 441 36,000  Level Cleveland Center
Sun 10:15:14 AM 41.8278 -77.5878 283° West 383 441 36,000  Level Cleveland Center
Sun 10:16:16 AM 41.8506 -77.7247 283° West 383 441 36,000  Level Cleveland Center
Sun 10:17:18 AM 41.8742 -77.8647 283° West 383 441 36,000  Level Cleveland Center
Sun 10:18:20 AM 41.8981 -78.0042 283° West 385 443 36,000  Level Cleveland Center
Sun 10:19:22 AM 41.9239 -78.1622 282° West 385 443 36,000  Level Cleveland Center
Sun 10:20:24 AM 41.9475 -78.3117 282° West 386 444 36,000  Level Cleveland Center
Sun 10:21:26 AM 41.9711 -78.4517 283° West 387 445 36,000  Level Cleveland Center
Sun 10:22:28 AM 41.9939 -78.5953 282° West 392 451 36,000  Level Cleveland Center
Sun 10:23:30 AM 42.0175 -78.7397 282° West 396 456 36,000  Level Cleveland Center
Sun 10:24:32 AM 42.0439 -78.9122 282° West 397 457 36,000  Level Cleveland Center
Sun 10:25:34 AM 42.0669 -79.0594 282° West 402 463 36,000  Level Cleveland Center
Sun 10:26:36 AM 42.0900 -79.2022 282° West 399 459 36,000  Level Cleveland Center
Sun 10:27:38 AM 42.1122 -79.3469 282° West 398 458 36,000  Level Cleveland Center
Sun 10:28:40 AM 42.1350 -79.4931 282° West 402 463 36,000  Level Cleveland Center
Sun 10:29:42 AM 42.1606 -79.6697 281° West 402 463 36,000  Level Cleveland Center
Sun 10:30:44 AM 42.1825 -79.8161 281° West 403 464 36,000  Level Cleveland Center
Sun 10:31:47 AM 42.2044 -79.9617 282° West 402 463 36,000  Level Cleveland Center
Sun 10:32:49 AM 42.2261 -80.1158 281° West 407 468 36,000  Level Cleveland Center
Sun 10:33:51 AM 42.2481 -80.2656 281° West 406 467 36,000  Level Cleveland Center
Sun 10:34:53 AM 42.2686 -80.4142 281° West 402 463 36,000  Level Cleveland Center
Sun 10:35:55 AM 42.2942 -80.5883 281° West 404 465 36,000  Level Cleveland Center
Sun 10:36:57 AM 42.3153 -80.7392 281° West 404 465 36,000  Level Cleveland Center
Sun 10:37:59 AM 42.3367 -80.8906 281° West 407 468 36,000  Level Cleveland Center
Sun 10:39:01 AM 42.3581 -81.0400 281° West 407 468 36,000  Level Cleveland Center
Sun 10:40:03 AM 42.4000 -81.1783 292° West 412 474 36,000 -387 Level Cleveland Center
Sun 10:41:05 AM 42.4708 -81.2903 311° West 399 459 35,200 -919 Descending Cleveland Center
Sun 10:42:07 AM 42.5478 -81.4333 306° West 397 457 34,100 -581 Descending Cleveland Center
Sun 10:43:09 AM 42.6111 -81.5558 305° West 399 459 34,000 -48 Descending Cleveland Center
Sun 10:44:11 AM 42.6458 -81.6994 288° West 399 459 34,000 -194 Level Cleveland Center
Sun 10:45:13 AM 42.6586 -81.8600 276° West 407 468 33,600 -629 Descending Cleveland Center
Sun 10:46:15 AM 42.6703 -82.0136 276° West 407 468 32,700 -912 Descending Cleveland Center
Sun 10:47:18 AM 42.6836 -82.1664 277° West 408 470 31,700 -1,056 Descending Cleveland Center
Sun 10:48:20 AM 42.6953 -82.3175 276° West 406 467 30,500 -1,355 Descending Cleveland Center
Sun 10:49:22 AM 42.7100 -82.4992 276° West 406 467 28,900 -1,452 Descending Cleveland Center
Sun 10:50:24 AM 42.7206 -82.6528 275° West 407 468 27,500 -1,355 Descending Cleveland Center
Sun 10:51:26 AM 42.7331 -82.8058 276° West 410 472 26,100 -1,355 Descending Cleveland Center
Sun 10:52:28 AM 42.7444 -82.9594 276° West 410 472 24,700 -1,355 Descending Cleveland Center
Sun 10:53:30 AM 42.7553 -83.1114 276° West 410 472 23,300 -1,500 Descending Cleveland Center
Sun 10:54:32 AM 42.7681 -83.2942 276° West 410 472 21,600 -1,113 Descending Cleveland Center
Sun 10:55:34 AM 42.7789 -83.4422 276° West 401 461 21,000 -968 Descending Cleveland Center
Sun 10:56:36 AM 42.7894 -83.5911 276° West 400 460 19,600 -1,355 Descending Cleveland Center
Sun 10:57:38 AM 42.7981 -83.7392 275° West 400 460 18,200 -1,306 Descending Cleveland Center
Sun 10:58:40 AM 42.8078 -83.8822 275° West 384 442 16,900 -1,355 Descending Cleveland Center
Sun 10:59:42 AM 42.8178 -84.0369 275° West 380 437 15,400 -1,452 Descending Cleveland Center
Sun 11:00:44 AM 42.8275 -84.1947 275° West 380 437 13,900 -1,403 Descending Cleveland Center
Sun 11:01:46 AM 42.8361 -84.3264 275° West 379 436 12,500 -1,355 Descending Cleveland Center
Sun 11:02:48 AM 42.8439 -84.4639 274° West 371 427 11,100 -1,210 Descending Cleveland Center
Sun 11:03:50 AM 42.8542 -84.6258 275° West 361 415 10,000 -823 Descending Cleveland Center
Sun 11:04:52 AM 42.8608 -84.7406 275° West 297 342 9,400 -919 Descending Cleveland Center
Sun 11:05:54 AM 42.8656 -84.8464 274° West 285 328 8,100 -677 Descending Cleveland Center
Sun 11:06:56 AM 42.8719 -84.9497 275° West 278 320 8,000 -339 Descending Cleveland Center
Sun 11:07:58 AM 42.8781 -85.0572 274° West 280 322 7,400 -1,016 Descending Cleveland Center
Sun 11:09:00 AM 42.8833 -85.1617 274° West 281 323 5,900 -1,935 Descending Cleveland Center
Sun 11:10:02 AM 42.8897 -85.2800 274° West 275 316 3,400 -1,659 Descending Cleveland Center
Sun 11:11:03 AM 42.8939 -85.3733 274° West 250 288 2,500 -732 Descending Cleveland Center
Sun 11:12:05 AM 42.8900 -85.4303 265° West 186 214 1,900 -629 Descending Cleveland Center
Sun 11:13:07 AM 42.8836 -85.4822 260° West 156 180 1,200 -484 Descending Cleveland Center
Sun 11:14:09 AM 42.8786 -85.5294 262° West 149 171 900 -290 Descending Cleveland Center
Sun 11:16:00 AM 42.8808 -85.5228 270° West  Level Estimated

Login

Don't have an account? Register now (free) for customized features, flight alerts, and more!